Destinations Liverpool John Lennon Airport

Liverpool John Lennon Airport (EGGP / LPL)

Flights to Liverpool John Lennon Airport

Flight number From ETE Dispatch
SPY-216 EHGG Groningen Airport Eelde 01:40
SPY-2202 EGFF Cardiff International Airport 01:00

Flights from Liverpool John Lennon Airport

Flight number To ETE Dispatch
SPY-217 EHGG Groningen Airport Eelde
SPY-2203 EGFF Cardiff International Airport 01:00
About

Liverpool John Lennon Airport facts

Liverpool John Lennon Airport is located in Liverpool at an elevation of 24.4 meters or 80 feet.

Currently, Speedy Airlines serves 4 flights to and from Liverpool John Lennon Airport.

Detailed airport info

Route map

Weather

Current weather

METAR

METAR

Metar data retrieved Sunday, 21 July 2024 at 20:25 UTC

EGGP 211950Z 20006KT CAVOK 16/11 Q1012
Wind Temperature
6 kt 16c